createdAt,value
2023-02-01T00:02:20.993Z,97678.13
2023-02-01T00:07:22.713Z,97667.72
2023-02-01T00:12:24.383Z,97663.97
2023-02-01T00:17:26.110Z,97633.91
2023-02-01T00:22:27.702Z,97645.53
2023-02-01T00:27:29.418Z,97633.03
2023-02-01T00:32:32.818Z,97646.38
2023-02-01T00:37:34.502Z,97645.53
2023-02-01T00:42:36.185Z,97645.91
2023-02-01T00:47:37.900Z,97652.56
2023-02-01T00:52:39.785Z,97653.78
2023-02-01T00:57:41.420Z,97657.16
2023-02-01T01:02:43.308Z,97634.19
2023-02-01T01:07:45.013Z,97640.81
2023-02-01T01:12:46.604Z,97635.59
2023-02-01T01:17:48.329Z,97613.69
2023-02-01T01:22:50.228Z,97634.94
2023-02-01T01:27:51.881Z,97610.31
2023-02-01T01:32:53.537Z,97603.00
2023-02-01T01:37:55.249Z,97591.53
2023-02-01T01:42:57.931Z,97599.69
2023-02-01T01:48:05.807Z,97608.72
2023-02-01T01:53:10.932Z,97606.22
2023-02-01T01:58:18.441Z,97603.50
2023-02-01T02:03:23.334Z,97597.41
2023-02-01T02:08:27.609Z,97598.75
2023-02-01T02:13:34.875Z,97590.47
2023-02-01T02:18:52.379Z,97585.19
2023-02-01T02:24:32.226Z,97580.81
2023-02-01T02:30:02.782Z,97587.44
2023-02-01T02:35:25.780Z,97590.78
2023-02-01T02:40:46.257Z,97580.38
2023-02-01T02:46:22.478Z,97577.88
2023-02-01T02:51:52.007Z,97566.19
2023-02-01T02:57:16.474Z,97562.44
2023-02-01T03:02:38.049Z,97545.56
2023-02-01T03:07:57.940Z,97565.50
2023-02-01T03:13:14.355Z,97545.47
2023-02-01T03:18:24.752Z,97538.94
2023-02-01T03:23:35.114Z,97545.63
2023-02-01T03:28:39.316Z,97543.75
2023-02-01T03:33:41.443Z,97546.00
2023-02-01T03:39:24.971Z,97537.88
2023-02-01T03:44:32.215Z,97547.06
2023-02-01T03:49:42.865Z,97531.59
2023-02-01T03:54:46.381Z,97530.81
2023-02-01T03:59:47.998Z,97529.50
2023-02-01T04:04:49.883Z,97530.19
2023-02-01T04:09:54.267Z,97532.91
2023-02-01T04:14:56.235Z,97529.97
2023-02-01T04:19:57.963Z,97527.03
2023-02-01T04:24:59.597Z,97522.81
2023-02-01T04:30:01.281Z,97530.34
2023-02-01T04:35:03.778Z,97537.44
2023-02-01T04:40:06.100Z,97535.31
2023-02-01T04:45:08.183Z,97528.22
2023-02-01T04:50:11.522Z,97524.31
2023-02-01T04:55:16.208Z,97503.22
2023-02-01T05:00:18.323Z,97492.16
2023-02-01T05:05:21.709Z,97481.44
2023-02-01T05:10:23.858Z,97496.91
2023-02-01T05:15:25.765Z,97486.63
2023-02-01T05:20:27.551Z,97475.78
2023-02-01T05:25:29.307Z,97471.44
2023-02-01T05:30:31.256Z,97491.47
2023-02-01T05:35:32.992Z,97478.28
2023-02-01T05:40:34.722Z,97470.53
2023-02-01T05:45:36.419Z,97467.19
2023-02-01T05:50:38.055Z,97474.75
2023-02-01T05:55:44.191Z,97468.88
2023-02-01T06:00:45.960Z,97473.47
2023-02-01T06:05:48.743Z,97460.59
2023-02-01T06:10:50.370Z,97463.00
2023-02-01T06:15:52.358Z,97466.63
2023-02-01T06:20:56.028Z,97453.41
2023-02-01T06:26:06.866Z,97457.81
2023-02-01T06:31:08.850Z,97458.84
2023-02-01T06:36:13.176Z,97472.63
2023-02-01T06:41:14.922Z,97471.50
2023-02-01T06:46:16.626Z,97457.13
2023-02-01T06:51:24.274Z,97474.59
2023-02-01T06:56:26.476Z,97472.47
2023-02-01T07:01:28.288Z,97487.25
2023-02-01T07:06:30.148Z,97478.66
2023-02-01T07:11:32.921Z,97469.16
2023-02-01T07:16:34.623Z,97471.25
2023-02-01T07:21:36.431Z,97475.63
2023-02-01T07:26:38.114Z,97490.25
2023-02-01T07:31:39.795Z,97471.47
2023-02-01T07:36:41.509Z,97470.56
2023-02-01T07:41:43.359Z,97472.59
2023-02-01T07:46:48.207Z,97484.88
2023-02-01T07:51:49.990Z,97492.34
2023-02-01T07:56:51.816Z,97498.75
2023-02-01T08:01:53.590Z,97493.56
2023-02-01T08:06:57.435Z,97494.13
2023-02-01T08:11:59.261Z,97490.97
2023-02-01T08:17:01.023Z,97493.69
2023-02-01T08:22:07.141Z,97489.53
2023-02-01T08:27:08.975Z,97495.81
2023-02-01T08:32:10.771Z,97512.91
2023-02-01T08:37:12.546Z,97517.53
2023-02-01T08:42:32.829Z,97514.94
2023-02-01T08:47:35.556Z,97521.13
2023-02-01T08:52:38.264Z,97526.69
2023-02-01T08:57:40.257Z,97533.19
2023-02-01T09:02:42.312Z,97522.19
2023-02-01T09:07:43.976Z,97543.16
2023-02-01T09:12:45.828Z,97543.63
2023-02-01T09:17:47.702Z,97542.25
2023-02-01T09:22:49.357Z,97539.72
2023-02-01T09:27:51.135Z,97547.28
2023-02-01T09:32:52.895Z,97534.94
2023-02-01T09:37:55.167Z,97547.06
2023-02-01T09:43:12.154Z,97557.13
2023-02-01T09:48:18.706Z,97576.88
2023-02-01T09:53:38.628Z,97570.69
2023-02-01T09:58:44.093Z,97557.81
2023-02-01T10:03:46.052Z,97568.56
2023-02-01T10:09:32.053Z,97571.06
2023-02-01T10:14:45.797Z,97573.78
2023-02-01T10:19:59.408Z,97580.44
2023-02-01T10:25:24.056Z,97588.84
2023-02-01T10:30:34.671Z,97590.81
2023-02-01T10:35:39.475Z,97599.00
2023-02-01T10:40:41.806Z,97603.63
2023-02-01T10:45:43.957Z,97593.53
2023-02-01T10:50:56.251Z,97592.75
2023-02-01T10:55:58.223Z,97579.53
2023-02-01T11:01:08.707Z,97573.66
2023-02-01T11:06:32.147Z,97550.56
2023-02-01T11:11:53.220Z,97554.19
2023-02-01T11:17:25.755Z,97562.00
2023-02-01T11:22:30.383Z,97558.13
2023-02-01T11:27:34.732Z,97574.38
2023-02-01T11:32:40.596Z,97556.78
2023-02-01T11:37:44.326Z,97568.03
2023-02-01T11:43:17.083Z,97567.28
2023-02-01T11:48:26.749Z,97586.28
2023-02-01T11:54:02.788Z,97576.19
2023-02-01T11:59:32.726Z,97559.44
2023-02-01T12:04:46.534Z,97537.97
2023-02-01T12:10:16.392Z,97540.75
2023-02-01T12:15:48.387Z,97536.84
2023-02-01T12:21:04.542Z,97529.88
2023-02-01T12:26:36.292Z,97528.41
2023-02-01T12:32:00.361Z,97504.84
2023-02-01T12:37:20.791Z,97508.59
2023-02-01T12:42:27.696Z,97515.94
2023-02-01T12:47:36.232Z,97494.31
2023-02-01T12:52:49.284Z,97500.16
2023-02-01T12:58:13.872Z,97507.28
2023-02-01T13:03:38.609Z,97502.66
2023-02-01T13:09:07.219Z,97504.31
2023-02-01T13:14:47.332Z,97493.00
2023-02-01T13:20:00.564Z,97480.91
2023-02-01T13:25:10.709Z,97484.31
2023-02-01T13:30:25.207Z,97475.94
2023-02-01T13:35:49.015Z,97512.78
2023-02-01T13:41:16.614Z,97510.69
2023-02-01T13:46:19.854Z,97489.03
2023-02-01T13:51:45.412Z,97499.59
2023-02-01T13:56:47.430Z,97503.94
2023-02-01T14:01:49.794Z,97504.41
2023-02-01T14:06:53.866Z,97499.81
2023-02-01T14:11:59.197Z,97504.31
2023-02-01T14:17:00.900Z,97491.78
2023-02-01T14:22:25.031Z,97488.03
2023-02-01T14:27:30.187Z,97501.38
2023-02-01T14:32:41.764Z,97484.69
2023-02-01T14:37:45.548Z,97497.22
2023-02-01T14:42:53.386Z,97487.78
2023-02-01T14:48:07.271Z,97506.44
2023-02-01T14:53:14.919Z,97493.91
2023-02-01T14:58:36.049Z,97499.69
2023-02-01T15:03:40.651Z,97479.97
2023-02-01T15:08:42.429Z,97479.41
2023-02-01T15:13:55.530Z,97491.78
2023-02-01T15:19:12.482Z,97491.78
2023-02-01T15:24:35.539Z,97508.53
2023-02-01T15:29:37.412Z,97491.06
2023-02-01T15:34:50.573Z,97486.47
2023-02-01T15:40:10.606Z,97499.81
2023-02-01T15:45:20.765Z,97507.34
2023-02-01T15:50:25.397Z,97499.53
2023-02-01T15:55:36.559Z,97518.78
2023-02-01T16:00:46.376Z,97506.88
2023-02-01T16:05:57.475Z,97501.19
2023-02-01T16:11:16.034Z,97491.53
2023-02-01T16:16:18.266Z,97510.31
2023-02-01T16:21:20.747Z,97510.75
2023-02-01T16:26:22.503Z,97494.38
2023-02-01T16:31:29.237Z,97494.38
2023-02-01T16:36:31.556Z,97490.22
2023-02-01T16:41:33.793Z,97507.72
2023-02-01T16:46:40.678Z,97512.94
2023-02-01T16:51:42.405Z,97508.78
2023-02-01T16:56:46.313Z,97518.59
2023-02-01T17:01:48.225Z,97498.81
2023-02-01T17:06:50.542Z,97495.66
2023-02-01T17:11:52.273Z,97485.38
2023-02-01T17:16:54.556Z,97490.78
2023-02-01T17:21:59.436Z,97488.66
2023-02-01T17:27:01.160Z,97508.75
2023-02-01T17:32:06.482Z,97496.81
2023-02-01T17:37:24.830Z,97493.63
2023-02-01T17:42:28.853Z,97500.38
2023-02-01T17:47:30.648Z,97474.28
2023-02-01T17:52:32.329Z,97473.34
2023-02-01T17:57:34.137Z,97465.91
2023-02-01T18:02:35.941Z,97472.66
2023-02-01T18:07:37.766Z,97500.38
2023-02-01T18:12:40.192Z,97480.56
2023-02-01T18:17:41.950Z,97487.66
2023-02-01T18:22:45.029Z,97504.41
2023-02-01T18:27:48.614Z,97516.91
2023-02-01T18:32:50.979Z,97506.91
2023-02-01T18:37:55.077Z,97497.22
2023-02-01T18:42:57.324Z,97483.84
2023-02-01T18:47:59.907Z,97501.00
2023-02-01T18:53:10.616Z,97486.34
2023-02-01T18:58:15.932Z,97490.13
2023-02-01T19:03:18.484Z,97490.59
2023-02-01T19:08:21.499Z,97500.16
2023-02-01T19:13:24.501Z,97471.25
2023-02-01T19:18:26.240Z,97480.91
2023-02-01T19:23:28.089Z,97467.94
2023-02-01T19:28:29.941Z,97477.88
2023-02-01T19:33:32.659Z,97482.84
2023-02-01T19:38:34.463Z,97480.34
2023-02-01T19:43:36.878Z,97477.63
2023-02-01T19:48:38.930Z,97471.34
2023-02-01T19:53:40.659Z,97475.75
2023-02-01T19:58:42.393Z,97496.66
2023-02-01T20:03:43.436Z,97495.94
2023-02-01T20:08:48.220Z,97493.00
2023-02-01T20:13:52.538Z,97461.56
2023-02-01T20:18:54.196Z,97457.31
2023-02-01T20:23:55.967Z,97443.94
2023-02-01T20:28:59.021Z,97497.50
2023-02-01T20:34:02.993Z,97464.50
2023-02-01T20:39:05.400Z,97469.09
2023-02-01T20:44:07.197Z,97462.16
2023-02-01T20:49:09.061Z,97462.50
2023-02-01T20:54:10.797Z,97445.72
2023-02-01T20:59:14.332Z,97467.22
2023-02-01T21:04:16.077Z,97475.84
2023-02-01T21:09:18.135Z,97455.66
2023-02-01T21:14:20.401Z,97470.03
2023-02-01T21:19:25.259Z,97464.59
2023-02-01T21:24:27.712Z,97466.75
2023-02-01T21:29:29.469Z,97466.75
2023-02-01T21:34:31.197Z,97478.78
2023-02-01T21:39:32.950Z,97466.28
2023-02-01T21:44:37.017Z,97491.31
2023-02-01T21:49:39.349Z,97475.84
2023-02-01T21:54:41.609Z,97497.97
2023-02-01T21:59:44.731Z,97503.03
2023-02-01T22:04:49.004Z,97464.50
2023-02-01T22:09:50.703Z,97480.44
2023-02-01T22:14:52.484Z,97488.75
2023-02-01T22:19:54.171Z,97481.38
2023-02-01T22:24:55.895Z,97497.09
2023-02-01T22:29:57.601Z,97475.94
2023-02-01T22:34:59.315Z,97486.91
2023-02-01T22:40:02.199Z,97481.50
2023-02-01T22:45:04.655Z,97499.66
2023-02-01T22:50:06.983Z,97498.94
2023-02-01T22:55:08.869Z,97493.38
2023-02-01T23:00:11.287Z,97501.28
2023-02-01T23:05:13.187Z,97504.22
2023-02-01T23:10:19.384Z,97501.34
2023-02-01T23:15:21.284Z,97503.47
2023-02-01T23:20:23.323Z,97472.53
2023-02-01T23:25:26.172Z,97511.91
2023-02-01T23:30:28.632Z,97496.53
2023-02-01T23:35:30.454Z,97513.28
2023-02-01T23:40:32.126Z,97513.38
2023-02-01T23:45:33.872Z,97513.47
2023-02-01T23:50:35.565Z,97511.09
2023-02-01T23:55:37.278Z,97502.50
